Weather at Pioneer Airport

Public forecast

Using degrees Fahrenheit for public forecast. Weather courtesy of forecast.io.

Closest aviation weather report (METAR) to Pioneer Airport

Closest report is Wittman Regional Airport, 0.8 nm (1.5 km) E. Retrieved 2021/09/19 19:53 UTC (47 minutes ago):

KOSH 191953Z 17010KT 10SM CLR 30/18 A3000 RMK AO2 SLP149 T03000183

Closest aviation forecast (TAF) to Pioneer Airport

Forecast is more than 12 hours old.

Closest forecast is Wittman Regional Airport, 0.8 nm (1.5 km) E. Retrieved 2021/08/04 18:24 UTC (2 months ago):

TAF KOSH 041722Z 0418/0518 VRB04KT P6SM SCT060 FM050200 18005KT P6SM SCT070 FM051200 22005KT P6SM FEW250